Time;durP1;ratioP1;P1;durP2;ratioP2;P2;SDS_P1;SDS_P2;PMS_P1;PMS_P2;Temp;Humidity;BMP_temperature;BMP_pressure;BME280_temperature;BME280_humidity;BME280_pressure;Samples;Min_cycle;Max_cycle;Signal;HPM_P1;HPM_P2
2023/03/18 00:01:38;;;;;;;4.60;1.03;;;;;;;11.06;52.99;98230.50;4980485;28;20245;-56
2023/03/18 00:04:05;;;;;;;4.23;1.07;;;;;;;10.94;54.06;98231.81;4983473;28;20327;-56
2023/03/18 00:06:31;;;;;;;2.20;1.00;;;;;;;10.83;54.72;98229.50;4980928;28;20236;-56
2023/03/18 00:08:59;;;;;;;5.53;1.20;;;;;;;10.96;53.27;98231.66;4984597;28;20294;-56
2023/03/18 00:11:26;;;;;;;3.07;1.20;;;;;;;10.90;53.93;98233.94;4981490;28;20700;-56
2023/03/18 00:13:53;;;;;;;3.93;1.30;;;;;;;10.76;55.89;98237.19;4982604;28;20607;-56
2023/03/18 00:16:20;;;;;;;2.83;1.20;;;;;;;10.59;56.36;98252.00;4983694;28;20248;-55
2023/03/18 00:18:46;;;;;;;3.00;1.27;;;;;;;10.41;56.73;98245.13;4982161;28;20227;-56
2023/03/18 00:21:13;;;;;;;3.23;1.20;;;;;;;10.27;55.36;98246.50;4984163;28;20695;-54
2023/03/18 00:23:40;;;;;;;3.27;1.10;;;;;;;10.15;56.00;98245.16;4981102;28;20711;-54
2023/03/18 00:26:08;;;;;;;2.83;0.90;;;;;;;10.08;55.94;98247.56;4984434;28;20241;-56
2023/03/18 00:28:36;;;;;;;3.47;1.10;;;;;;;10.11;54.95;98257.69;4959763;28;20229;-56
2023/03/18 00:31:07;;;;;;;2.30;1.10;;;;;;;10.75;49.42;98246.78;4987689;28;20590;-56
2023/03/18 00:33:34;;;;;;;2.73;0.83;;;;;;;10.72;50.07;98254.94;4982900;28;20567;-55
2023/03/18 00:36:01;;;;;;;2.90;1.47;;;;;;;10.75;51.72;98259.84;4969433;28;20501;-56
2023/03/18 00:38:29;;;;;;;3.20;1.57;;;;;;;10.72;51.88;98254.16;4966325;28;20305;-53
2023/03/18 00:41:03;;;;;;;4.13;2.00;;;;;;;10.62;50.83;98254.28;4986157;28;20313;-56
2023/03/18 00:43:34;;;;;;;4.03;1.23;;;;;;;10.55;51.52;98250.69;4983128;28;20320;-54
2023/03/18 00:46:02;;;;;;;2.80;0.90;;;;;;;10.36;53.40;98265.63;4971845;28;20229;-54
2023/03/18 00:48:30;;;;;;;3.77;1.17;;;;;;;10.28;54.86;98262.97;4984072;28;20314;-56
2023/03/18 00:50:56;;;;;;;2.43;1.13;;;;;;;10.21;52.06;98262.78;4967604;28;20314;-57
2023/03/18 00:53:24;;;;;;;1.93;1.00;;;;;;;10.23;52.20;98253.00;4982330;28;20589;-55
2023/03/18 00:55:51;;;;;;;5.00;1.10;;;;;;;10.30;52.20;98248.78;4985009;28;20229;-57
2023/03/18 00:58:18;;;;;;;6.30;1.30;;;;;;;10.42;51.10;98248.53;4968945;28;20237;-55
2023/03/18 01:00:47;;;;;;;2.23;1.00;;;;;;;10.44;51.56;98252.63;4967102;28;20230;-56
2023/03/18 01:03:14;;;;;;;1.73;1.03;;;;;;;10.36;52.87;98254.34;4985159;28;20238;-56
2023/03/18 01:05:41;;;;;;;3.30;1.53;;;;;;;10.64;51.27;98257.53;4957310;28;20229;-57
2023/03/18 01:08:09;;;;;;;4.37;1.20;;;;;;;10.66;49.79;98255.59;4969227;28;20257;-55
2023/03/18 01:10:36;;;;;;;9.27;2.13;;;;;;;10.66;51.95;98265.22;4982819;28;20238;-56
2023/03/18 01:13:02;;;;;;;3.63;1.80;;;;;;;10.62;50.86;98260.31;4986968;28;20261;-55
2023/03/18 01:15:29;;;;;;;3.00;1.30;;;;;;;10.58;51.68;98266.84;4965358;28;20238;-55
2023/03/18 01:17:57;;;;;;;2.33;1.30;;;;;;;10.48;53.25;98267.00;4969438;28;20316;-56
2023/03/18 01:20:25;;;;;;;3.90;1.37;;;;;;;10.38;52.72;98276.72;4965699;28;20737;-56
2023/03/18 01:22:55;;;;;;;1.63;0.93;;;;;;;10.41;52.44;98255.56;4984919;28;20234;-55
2023/03/18 01:25:22;;;;;;;5.53;1.10;;;;;;;10.41;52.15;98263.38;4965950;28;20260;-56
2023/03/18 01:27:54;;;;;;;6.50;1.17;;;;;;;10.46;51.46;98258.50;4969476;28;20728;-56
2023/03/18 01:30:22;;;;;;;4.27;1.00;;;;;;;10.47;52.40;98260.13;4985250;28;20235;-56
2023/03/18 01:32:53;;;;;;;2.57;1.23;;;;;;;10.32;54.13;98259.09;4982344;28;20297;-56
2023/03/18 01:35:21;;;;;;;3.40;1.00;;;;;;;10.14;54.60;98257.38;4967876;28;20733;-57
2023/03/18 01:37:50;;;;;;;10.23;1.13;;;;;;;10.02;55.41;98254.25;4955515;28;20251;-56
2023/03/18 01:40:17;;;;;;;6.07;1.03;;;;;;;10.00;54.08;98250.97;4968705;28;20240;-56
2023/03/18 01:42:52;;;;;;;5.30;1.20;;;;;;;10.08;54.02;98252.78;4955663;28;20272;-57
2023/03/18 01:45:23;;;;;;;4.00;1.20;;;;;;;10.17;53.50;98251.03;4967337;28;20234;-55
2023/03/18 01:47:56;;;;;;;3.27;1.17;;;;;;;10.41;51.23;98245.13;4956882;28;20228;-56
2023/03/18 01:50:27;;;;;;;3.23;1.10;;;;;;;10.40;53.26;98248.69;4983434;28;20940;-56
2023/03/18 01:52:58;;;;;;;2.13;0.90;;;;;;;10.42;52.83;98251.13;4968339;28;20250;-56
2023/03/18 01:55:26;;;;;;;1.43;0.90;;;;;;;10.22;55.26;98240.13;4983183;28;20236;-56
2023/03/18 01:57:54;;;;;;;3.50;1.10;;;;;;;10.12;55.51;98248.06;4984621;28;20242;-55
2023/03/18 02:00:22;;;;;;;2.47;1.10;;;;;;;10.06;55.50;98244.31;4984168;28;20239;-57
2023/03/18 02:02:52;;;;;;;2.97;1.23;;;;;;;9.97;55.98;98245.25;4966375;28;20228;-55
2023/03/18 02:05:22;;;;;;;6.80;1.10;;;;;;;10.11;54.30;98242.03;4967266;28;20227;-56
2023/03/18 02:07:53;;;;;;;8.70;1.10;;;;;;;10.22;53.98;98247.97;4982566;28;20315;-56
2023/03/18 02:10:23;;;;;;;4.20;1.33;;;;;;;10.33;54.46;98242.44;4967271;28;20252;-56
2023/03/18 02:13:02;;;;;;;3.47;1.40;;;;;;;10.33;54.22;98243.25;4966378;28;20235;-56
2023/03/18 02:15:38;;;;;;;3.00;0.90;;;;;;;10.42;54.71;98259.78;4980551;28;20757;-55
2023/03/18 02:18:08;;;;;;;2.67;1.10;;;;;;;10.45;53.97;98251.66;4983339;28;20237;-56
2023/03/18 02:20:44;;;;;;;1.70;1.10;;;;;;;10.45;53.86;98251.66;4966960;28;20669;-57
2023/03/18 02:23:28;;;;;;;4.37;1.20;;;;;;;10.48;53.84;98258.34;4967153;28;20240;-57
2023/03/18 02:26:01;;;;;;;5.73;1.10;;;;;;;10.63;53.59;98254.13;4982105;28;20241;-56
2023/03/18 02:28:32;;;;;;;4.40;1.00;;;;;;;10.58;53.94;98258.22;4965360;28;20328;-56
2023/03/18 02:31:03;;;;;;;2.57;0.90;;;;;;;10.55;53.98;98264.56;4961718;28;20236;-55
2023/03/18 02:33:35;;;;;;;3.30;1.23;;;;;;;10.38;55.19;98257.63;4964464;28;20233;-55
2023/03/18 02:36:09;;;;;;;3.50;1.20;;;;;;;10.31;55.47;98255.63;4985854;28;20239;-55
2023/03/18 02:38:41;;;;;;;4.10;1.10;;;;;;;10.26;54.75;98251.88;4980750;28;20397;-55
2023/03/18 02:41:14;;;;;;;2.07;0.80;;;;;;;10.28;54.53;98255.94;4984028;28;20240;-57
2023/03/18 02:43:44;;;;;;;2.27;1.00;;;;;;;10.52;52.98;98248.41;4964850;28;20256;-56
2023/03/18 02:46:26;;;;;;;2.63;1.20;;;;;;;10.47;53.03;98247.09;4966726;28;20237;-56
2023/03/18 02:48:53;;;;;;;2.20;1.20;;;;;;;10.45;53.54;98248.22;4965275;28;20239;-55
2023/03/18 02:51:20;;;;;;;3.33;1.20;;;;;;;10.53;53.52;98252.66;4965452;28;20445;-54
2023/03/18 02:53:48;;;;;;;4.17;1.00;;;;;;;10.65;53.42;98253.16;4963060;28;20318;-55
2023/03/18 02:56:16;;;;;;;5.37;1.40;;;;;;;10.68;52.68;98252.84;4958363;28;20730;-55
2023/03/18 02:58:45;;;;;;;2.63;1.13;;;;;;;10.50;54.27;98250.34;4964492;28;20320;-56
2023/03/18 03:01:14;;;;;;;3.23;1.43;;;;;;;10.41;55.35;98250.34;4967710;28;20313;-55
2023/03/18 03:03:41;;;;;;;2.63;1.40;;;;;;;10.30;54.69;98255.81;4981791;28;20241;-57
2023/03/18 03:06:10;;;;;;;3.63;1.40;;;;;;;10.19;56.02;98257.72;4983414;28;20235;-54
2023/03/18 03:08:39;;;;;;;5.57;1.20;;;;;;;10.10;55.00;98255.22;4980317;28;20251;-56
2023/03/18 03:11:06;;;;;;;3.37;1.20;;;;;;;10.15;55.62;98260.78;4967289;28;20660;-57
2023/03/18 03:13:36;;;;;;;3.40;1.30;;;;;;;10.08;55.82;98263.22;4978067;28;20751;-56
2023/03/18 03:16:05;;;;;;;3.33;1.13;;;;;;;10.03;56.36;98261.09;4984705;28;20300;-56
2023/03/18 03:18:32;;;;;;;2.83;1.27;;;;;;;10.00;56.50;98268.41;4963870;28;20315;-54
2023/03/18 03:20:58;;;;;;;2.13;1.20;;;;;;;9.94;57.38;98262.03;4984478;28;20247;-55
2023/03/18 03:23:26;;;;;;;3.70;1.07;;;;;;;9.94;57.25;98269.84;4963330;28;20264;-53
2023/03/18 03:25:52;;;;;;;3.23;1.17;;;;;;;9.89;58.41;98267.69;4966911;28;20229;-55
2023/03/18 03:28:20;;;;;;;3.40;1.47;;;;;;;9.86;58.18;98269.81;4966135;28;20257;-56
2023/03/18 03:30:47;;;;;;;2.00;1.10;;;;;;;9.77;59.97;98262.91;4963547;28;20236;-54
2023/03/18 03:33:16;;;;;;;5.20;1.20;;;;;;;9.85;57.90;98261.16;4958011;28;20226;-54
2023/03/18 03:35:43;;;;;;;3.00;1.20;;;;;;;9.92;57.92;98265.75;4980421;28;20245;-55
2023/03/18 03:38:10;;;;;;;5.63;1.20;;;;;;;9.88;58.29;98262.66;4983504;28;20229;-56
2023/03/18 03:40:37;;;;;;;3.27;1.07;;;;;;;9.85;57.40;98266.38;4979780;28;20232;-56
2023/03/18 03:43:04;;;;;;;3.07;1.17;;;;;;;9.82;57.35;98261.47;4966153;28;20236;-56
2023/03/18 03:45:32;;;;;;;2.40;1.07;;;;;;;9.79;58.20;98266.19;4964315;28;20260;-57
2023/03/18 03:47:59;;;;;;;3.40;1.00;;;;;;;9.76;56.80;98269.91;4983202;28;20240;-54
2023/03/18 03:50:27;;;;;;;4.00;1.20;;;;;;;9.81;57.31;98269.47;4980294;28;20440;-56
2023/03/18 03:52:54;;;;;;;5.17;1.30;;;;;;;9.74;58.58;98266.63;4984444;28;20299;-55
2023/03/18 03:55:22;;;;;;;5.40;1.60;;;;;;;9.59;59.90;98269.00;4966326;28;20229;-54
2023/03/18 03:57:54;;;;;;;2.07;1.00;;;;;;;9.43;60.64;98275.72;4964498;28;20225;-56
2023/03/18 04:00:23;;;;;;;3.37;1.07;;;;;;;9.25;61.49;98278.38;4982272;28;20247;-56
2023/03/18 04:02:52;;;;;;;5.03;1.20;;;;;;;9.07;62.73;98278.38;4985219;28;20295;-55
2023/03/18 04:05:23;;;;;;;2.50;1.00;;;;;;;8.95;63.50;98269.19;4985190;28;20353;-53
2023/03/18 04:07:54;;;;;;;5.47;1.10;;;;;;;8.89;62.98;98273.19;4959821;28;20231;-55
2023/03/18 04:10:33;;;;;;;5.07;1.10;;;;;;;8.75;63.98;98273.69;4983056;28;20235;-55
2023/03/18 04:13:01;;;;;;;3.50;1.33;;;;;;;8.73;64.50;98260.84;4970508;28;20227;-57
2023/03/18 04:15:27;;;;;;;2.70;1.30;;;;;;;8.69;64.93;98262.91;4956437;28;20232;-56
2023/03/18 04:17:55;;;;;;;5.63;1.10;;;;;;;8.60;66.29;98257.78;4968875;28;20225;-53
2023/03/18 04:20:23;;;;;;;4.27;1.30;;;;;;;8.57;65.29;98253.69;4958786;28;20228;-56
2023/03/18 04:22:51;;;;;;;5.13;1.20;;;;;;;8.48;65.64;98257.97;4987232;28;20233;-56
2023/03/18 04:25:22;;;;;;;6.47;1.47;;;;;;;8.41;66.29;98255.13;4986751;28;20240;-56
2023/03/18 04:27:52;;;;;;;3.87;1.63;;;;;;;8.39;66.79;98266.63;4984256;28;20233;-54
2023/03/18 04:33:02;;;;;;;1.67;1.20;;;;;;;8.28;66.70;98259.88;4989008;23;20239;-56
2023/03/18 04:35:30;;;;;;;5.17;1.10;;;;;;;8.35;65.64;98260.91;4957545;28;20693;-56
2023/03/18 04:37:57;;;;;;;2.83;1.10;;;;;;;8.41;65.09;98259.50;4942108;28;20767;-55
2023/03/18 04:40:26;;;;;;;1.53;0.90;;;;;;;8.44;65.54;98261.00;4947186;28;20311;-55
2023/03/18 04:42:52;;;;;;;4.87;1.40;;;;;;;8.45;66.22;98268.66;4950451;28;20283;-55
2023/03/18 04:45:23;;;;;;;2.70;0.90;;;;;;;8.46;67.33;98265.09;4947030;28;20232;-56
2023/03/18 04:47:56;;;;;;;3.37;1.23;;;;;;;8.39;67.81;98264.88;4950591;28;20236;-56
2023/03/18 04:50:24;;;;;;;2.53;0.90;;;;;;;8.33;67.04;98256.81;4945535;28;20247;-55
2023/03/18 04:52:53;;;;;;;4.33;1.20;;;;;;;8.25;68.18;98265.34;4961010;28;20237;-55
2023/03/18 04:55:26;;;;;;;3.90;1.17;;;;;;;8.10;69.18;98257.19;4941876;28;20251;-57
2023/03/18 04:57:53;;;;;;;2.03;0.93;;;;;;;7.98;68.85;98269.56;4940617;28;20228;-59
2023/03/18 05:00:22;;;;;;;3.43;0.90;;;;;;;7.93;69.63;98269.19;4950138;28;20315;-57
2023/03/18 05:03:00;;;;;;;3.33;0.93;;;;;;;7.94;70.90;98265.63;4947291;28;20742;-57
2023/03/18 05:05:27;;;;;;;1.53;1.03;;;;;;;7.85;72.24;98267.31;4932111;28;20230;-55
2023/03/18 05:07:54;;;;;;;4.97;1.30;;;;;;;7.80;69.75;98266.91;4934307;28;20299;-56
2023/03/18 05:10:22;;;;;;;3.10;1.10;;;;;;;7.81;72.43;98263.34;4947444;28;20224;-56
2023/03/18 05:12:52;;;;;;;3.40;0.90;;;;;;;7.69;71.94;98262.69;4944508;28;20237;-55
2023/03/18 05:15:27;;;;;;;4.43;0.97;;;;;;;7.64;73.03;98262.28;4943395;28;20228;-56
2023/03/18 05:17:56;;;;;;;3.77;1.17;;;;;;;7.60;73.11;98253.97;4945254;28;20237;-56
2023/03/18 05:20:23;;;;;;;4.53;1.20;;;;;;;7.53;73.01;98265.88;4949444;28;20223;-56
2023/03/18 05:22:53;;;;;;;3.50;0.90;;;;;;;7.53;73.63;98266.69;4951333;28;20241;-56
2023/03/18 05:25:30;;;;;;;2.90;1.07;;;;;;;7.43;72.06;98263.28;4944884;28;20241;-55
2023/03/18 05:27:58;;;;;;;2.70;0.90;;;;;;;7.32;72.45;98269.47;4930476;29;20258;-56
2023/03/18 05:30:43;;;;;;;53.17;17.57;;;;;;;7.20;73.69;98271.41;4962501;28;20236;-56
2023/03/18 05:33:13;;;;;;;2.13;1.07;;;;;;;7.18;74.03;98269.88;4952742;28;20254;-55
2023/03/18 05:35:50;;;;;;;2.83;1.07;;;;;;;7.17;74.08;98269.09;4941135;28;20235;-57
2023/03/18 05:38:20;;;;;;;6.13;1.47;;;;;;;7.08;74.86;98272.50;4965530;28;20231;-56
2023/03/18 05:40:48;;;;;;;3.73;1.10;;;;;;;7.12;75.28;98270.44;4948926;28;20234;-57
2023/03/18 05:43:28;;;;;;;2.53;0.90;;;;;;;7.00;76.36;98280.16;4936530;28;20255;-56
2023/03/18 05:45:57;;;;;;;3.87;1.10;;;;;;;6.93;76.92;98280.69;4936485;28;20242;-55
2023/03/18 05:48:36;;;;;;;2.70;1.10;;;;;;;6.86;77.39;98287.38;4961464;28;20507;-55
2023/03/18 05:51:06;;;;;;;4.63;1.03;;;;;;;6.75;76.56;98288.34;4929808;28;20446;-56
2023/03/18 05:53:35;;;;;;;5.47;1.10;;;;;;;6.74;75.62;98286.69;4937064;28;20231;-54
2023/03/18 05:56:11;;;;;;;3.57;0.80;;;;;;;6.77;76.76;98286.44;4934473;28;20234;-56
2023/03/18 05:58:39;;;;;;;4.87;1.30;;;;;;;6.73;76.18;98286.81;4942437;28;20560;-56
2023/03/18 06:01:36;;;;;;;3.33;1.10;;;;;;;6.89;76.10;98286.31;4952664;28;20688;-54
2023/03/18 06:04:05;;;;;;;1.50;0.87;;;;;;;6.89;78.38;98289.69;4946351;28;20331;-56
2023/03/18 06:06:31;;;;;;;7.10;0.93;;;;;;;6.96;76.70;98287.38;4937201;28;20310;-56
2023/03/18 06:08:59;;;;;;;3.17;1.00;;;;;;;7.00;76.16;98287.94;4941906;28;20319;-56
2023/03/18 06:11:27;;;;;;;5.57;1.10;;;;;;;6.99;75.86;98284.50;4962127;28;20232;-55
2023/03/18 06:13:55;;;;;;;4.57;1.20;;;;;;;7.04;76.78;98281.53;4964626;28;20223;-53
2023/03/18 06:16:23;;;;;;;3.53;1.03;;;;;;;7.07;77.26;98283.84;4965019;28;20236;-55
2023/03/18 06:18:54;;;;;;;6.93;1.40;;;;;;;7.05;77.56;98294.34;4948671;28;20294;-55
2023/03/18 06:21:20;;;;;;;3.73;1.53;;;;;;;7.14;76.33;98297.06;4949235;28;20231;-55
2023/03/18 06:23:48;;;;;;;8.53;1.30;;;;;;;7.08;77.95;98296.66;4948563;28;20239;-55
2023/03/18 06:26:15;;;;;;;6.80;1.10;;;;;;;7.02;78.00;98291.22;4966044;28;20705;-54
2023/03/18 06:28:47;;;;;;;1.90;1.30;;;;;;;6.98;77.27;98292.44;4962367;28;20231;-56
2023/03/18 06:31:17;;;;;;;2.53;1.00;;;;;;;7.04;76.44;98297.09;4942163;28;20243;-54
2023/03/18 06:33:45;;;;;;;4.20;0.93;;;;;;;7.02;76.57;98288.63;4936748;28;20335;-56
2023/03/18 06:36:15;;;;;;;3.80;1.00;;;;;;;7.13;77.15;98298.88;4937748;28;20239;-54
2023/03/18 06:38:46;;;;;;;2.90;0.97;;;;;;;7.13;77.70;98301.47;4954966;28;20222;-55
2023/03/18 06:41:13;;;;;;;8.07;1.93;;;;;;;7.10;78.72;98299.13;4950065;28;20238;-57
2023/03/18 06:43:50;;;;;;;4.20;1.47;;;;;;;7.08;77.94;98298.47;4932354;28;20263;-56
2023/03/18 06:46:19;;;;;;;4.67;1.50;;;;;;;7.11;76.63;98308.56;4943280;28;20254;-57
2023/03/18 06:48:46;;;;;;;5.63;1.40;;;;;;;7.11;76.87;98305.13;4944550;28;20227;-54
2023/03/18 06:51:17;;;;;;;5.07;1.87;;;;;;;7.14;77.79;98304.88;4953547;28;20322;-55
2023/03/18 06:53:43;;;;;;;6.90;2.47;;;;;;;7.23;76.34;98306.63;4960884;28;20597;-55
2023/03/18 06:56:14;;;;;;;7.17;2.90;;;;;;;7.25;76.47;98307.31;4930999;28;20245;-55
2023/03/18 06:58:52;;;;;;;5.90;2.40;;;;;;;7.32;77.16;98307.59;4940277;28;20576;-56
2023/03/18 07:01:20;;;;;;;4.67;2.57;;;;;;;7.33;77.95;98309.25;4948175;28;20239;-56
2023/03/18 07:03:48;;;;;;;4.73;2.10;;;;;;;7.35;78.18;98305.53;4955166;28;20236;-56
2023/03/18 07:06:15;;;;;;;5.47;1.47;;;;;;;7.43;78.43;98310.03;4951437;28;20313;-54
2023/03/18 07:08:43;;;;;;;5.40;2.43;;;;;;;7.53;78.30;98305.66;4937404;28;21947;-56
2023/03/18 07:11:10;;;;;;;4.13;1.90;;;;;;;7.69;77.99;98306.84;4959828;28;20239;-56
2023/03/18 07:13:40;;;;;;;4.03;2.07;;;;;;;7.83;77.06;98316.00;4959493;28;20603;-56
2023/03/18 07:16:14;;;;;;;6.53;2.37;;;;;;;8.04;75.04;98323.59;4962378;28;20235;-55
2023/03/18 07:18:43;;;;;;;3.53;2.13;;;;;;;8.12;76.54;98325.47;4936754;28;20320;-56
2023/03/18 07:21:12;;;;;;;3.07;1.40;;;;;;;8.17;78.57;98325.06;4934363;28;20620;-57
2023/03/18 07:23:39;;;;;;;4.93;1.57;;;;;;;8.24;77.41;98329.53;4927654;28;20237;-56
2023/03/18 07:26:07;;;;;;;3.10;1.40;;;;;;;8.41;78.10;98337.53;4946124;28;20256;-57
2023/03/18 07:28:34;;;;;;;2.70;1.30;;;;;;;8.44;79.39;98341.66;4960733;28;20761;-55
2023/03/18 07:31:01;;;;;;;3.30;1.23;;;;;;;8.48;77.87;98340.41;4956972;28;20237;-56
2023/03/18 07:33:28;;;;;;;1.50;1.03;;;;;;;8.55;76.92;98347.50;4961779;28;20225;-57
2023/03/18 07:35:56;;;;;;;3.27;1.10;;;;;;;8.74;74.18;98345.75;4943301;28;20262;-58
2023/03/18 07:38:23;;;;;;;3.33;0.90;;;;;;;8.82;74.46;98343.25;4954224;28;20307;-57
2023/03/18 07:40:50;;;;;;;4.63;2.07;;;;;;;9.14;65.42;98347.13;4962217;28;20348;-56
2023/03/18 07:43:17;;;;;;;6.27;1.70;;;;;;;9.26;68.07;98346.91;4963825;28;20230;-58
2023/03/18 07:45:44;;;;;;;4.77;1.60;;;;;;;9.34;70.08;98349.56;4965866;28;20348;-58
2023/03/18 07:48:11;;;;;;;2.23;1.10;;;;;;;9.51;70.86;98341.91;4972959;28;20233;-58
2023/03/18 07:50:38;;;;;;;3.10;1.60;;;;;;;9.64;69.64;98338.88;4968755;28;20333;-55
2023/03/18 07:53:06;;;;;;;1.67;0.90;;;;;;;9.74;71.85;98339.63;4954288;28;20244;-57
2023/03/18 07:55:32;;;;;;;1.57;1.10;;;;;;;9.82;72.22;98337.06;4959416;28;20263;-57
2023/03/18 07:57:59;;;;;;;2.60;1.20;;;;;;;9.90;71.17;98339.72;4967110;28;20571;-58
2023/03/18 08:00:26;;;;;;;1.57;1.03;;;;;;;9.96;69.76;98342.69;4948600;28;20785;-58
2023/03/18 08:02:53;;;;;;;2.97;1.13;;;;;;;10.00;69.60;98337.03;4965406;28;20237;-58
2023/03/18 08:05:20;;;;;;;2.77;1.20;;;;;;;10.06;66.80;98337.38;4967611;28;20918;-56
2023/03/18 08:07:48;;;;;;;4.03;1.60;;;;;;;10.09;66.55;98343.09;4967019;28;20605;-55
2023/03/18 08:10:16;;;;;;;2.77;1.30;;;;;;;10.08;69.06;98349.28;4955927;28;20750;-57
2023/03/18 08:12:42;;;;;;;4.60;1.80;;;;;;;10.16;68.08;98345.88;4954562;28;20288;-57
2023/03/18 08:15:10;;;;;;;3.73;1.53;;;;;;;10.26;65.30;98356.22;4968409;28;20889;-55
2023/03/18 08:17:37;;;;;;;4.73;1.60;;;;;;;10.38;65.99;98360.19;4951448;28;20242;-59
2023/03/18 08:20:04;;;;;;;4.47;1.93;;;;;;;10.47;66.48;98356.69;4968869;28;20287;-58
2023/03/18 08:22:31;;;;;;;3.73;1.97;;;;;;;10.43;67.34;98352.75;4969254;28;20240;-57
2023/03/18 08:24:58;;;;;;;3.60;1.20;;;;;;;10.52;65.06;98355.41;4973038;28;20226;-57
2023/03/18 08:27:25;;;;;;;3.60;1.60;;;;;;;10.58;68.81;98355.56;4967614;28;20716;-57
2023/03/18 08:29:52;;;;;;;3.67;2.03;;;;;;;10.76;65.95;98363.28;4960523;28;20241;-56
2023/03/18 08:32:19;;;;;;;4.80;2.20;;;;;;;10.98;63.57;98363.69;4954071;28;20238;-58
2023/03/18 08:34:45;;;;;;;2.93;1.77;;;;;;;11.23;62.24;98371.56;4957260;28;20234;-58
2023/03/18 08:37:13;;;;;;;3.00;1.60;;;;;;;11.55;54.96;98358.69;4950599;28;20235;-57
2023/03/18 08:39:40;;;;;;;3.67;1.53;;;;;;;11.88;50.95;98358.66;4968442;28;20288;-56
2023/03/18 08:42:07;;;;;;;4.20;1.40;;;;;;;12.23;49.10;98361.88;4969814;28;20239;-58
2023/03/18 08:44:35;;;;;;;3.20;1.30;;;;;;;12.48;49.41;98359.19;4969529;28;20715;-56
2023/03/18 08:47:01;;;;;;;3.23;1.37;;;;;;;12.73;46.58;98356.47;4969123;28;20643;-55
2023/03/18 08:49:28;;;;;;;3.60;1.50;;;;;;;12.85;46.12;98355.88;4966766;28;20235;-56
2023/03/18 08:51:55;;;;;;;2.50;1.23;;;;;;;13.08;46.05;98349.06;4957407;28;20329;-57
2023/03/18 08:54:22;;;;;;;3.83;1.07;;;;;;;13.34;44.89;98353.94;4951104;28;20215;-58
2023/03/18 08:56:48;;;;;;;3.73;1.10;;;;;;;13.64;43.25;98358.50;4961009;28;20332;-58
2023/03/18 08:59:16;;;;;;;5.13;1.10;;;;;;;13.87;43.13;98351.41;4954666;28;20220;-56
2023/03/18 09:01:44;;;;;;;5.90;1.03;;;;;;;14.09;42.60;98348.06;4966603;28;20305;-53
2023/03/18 09:04:12;;;;;;;3.73;1.33;;;;;;;14.08;41.84;98352.50;4967812;28;20229;-55
2023/03/18 09:06:38;;;;;;;5.50;1.20;;;;;;;14.20;42.11;98346.81;4967590;28;20231;-54
2023/03/18 09:09:05;;;;;;;2.50;1.17;;;;;;;14.15;41.58;98348.19;4951149;28;20250;-56
2023/03/18 09:11:32;;;;;;;4.43;1.20;;;;;;;14.29;40.41;98337.84;4960096;28;20312;-55
2023/03/18 09:13:59;;;;;;;2.80;1.23;;;;;;;14.47;41.14;98345.34;4949923;28;20243;-56
2023/03/18 09:16:26;;;;;;;4.30;1.07;;;;;;;14.58;40.62;98357.19;4963647;28;20391;-56
2023/03/18 09:18:54;;;;;;;2.10;1.10;;;;;;;14.80;39.85;98354.66;4969425;28;20235;-55
2023/03/18 09:21:21;;;;;;;3.17;1.10;;;;;;;14.69;40.86;98348.88;4959356;28;20618;-55
2023/03/18 09:23:48;;;;;;;2.97;1.20;;;;;;;14.80;40.39;98347.59;4965021;28;20239;-56
2023/03/18 09:26:15;;;;;;;4.17;1.20;;;;;;;14.84;39.66;98342.78;4946697;28;20247;-54
2023/03/18 09:28:41;;;;;;;3.77;1.40;;;;;;;14.65;41.60;98344.16;4966052;28;20240;-56
2023/03/18 09:31:08;;;;;;;3.27;1.50;;;;;;;14.37;41.72;98336.94;4969496;28;20239;-56
2023/03/18 09:33:35;;;;;;;7.97;1.60;;;;;;;14.40;41.61;98339.19;4966438;28;20236;-56
2023/03/18 09:36:04;;;;;;;4.57;1.00;;;;;;;14.43;43.35;98344.88;4967940;28;20268;-56
2023/03/18 09:38:31;;;;;;;3.73;1.10;;;;;;;14.45;41.59;98336.84;4951838;28;20582;-54
2023/03/18 09:41:06;;;;;;;3.50;1.27;;;;;;;14.60;39.76;98337.63;4949243;28;20373;-56
2023/03/18 09:43:59;;;;;;;1.57;0.90;;;;;;;14.68;40.03;98335.91;4956386;28;20965;-56
2023/03/18 09:46:34;;;;;;;3.23;1.27;;;;;;;14.78;39.93;98333.81;4946820;28;20243;-57
2023/03/18 09:49:28;;;;;;;2.77;1.47;;;;;;;15.04;39.78;98332.47;4968250;28;20237;-57
2023/03/18 09:52:07;;;;;;;3.53;1.10;;;;;;;15.25;39.89;98325.56;4965376;28;20248;-57
2023/03/18 09:54:39;;;;;;;2.70;1.20;;;;;;;15.34;39.28;98325.28;4957496;28;20229;-57
2023/03/18 09:57:15;;;;;;;2.83;1.20;;;;;;;15.79;37.85;98334.72;4967831;28;20634;-56
2023/03/18 09:59:45;;;;;;;5.67;1.60;;;;;;;15.73;39.41;98325.78;4947275;28;20247;-56
2023/03/18 10:02:20;;;;;;;4.83;1.50;;;;;;;15.82;37.69;98334.31;4969528;28;20785;-53
2023/03/18 10:04:52;;;;;;;2.60;1.10;;;;;;;15.84;37.04;98328.88;4956422;28;20221;-56
2023/03/18 10:07:23;;;;;;;2.80;1.10;;;;;;;15.71;38.18;98325.16;4969236;28;20237;-56
2023/03/18 10:09:56;;;;;;;5.20;1.10;;;;;;;15.58;39.19;98332.94;4962627;28;20237;-55
2023/03/18 10:12:31;;;;;;;2.80;1.10;;;;;;;15.69;38.07;98337.69;4965365;28;20241;-54
2023/03/18 10:15:07;;;;;;;4.73;1.10;;;;;;;15.64;37.97;98334.81;4958183;28;20584;-56
2023/03/18 10:17:39;;;;;;;2.97;1.20;;;;;;;15.45;38.36;98329.19;4955779;28;20244;-56
2023/03/18 10:20:16;;;;;;;3.77;1.20;;;;;;;15.51;39.92;98327.63;4932777;28;20230;-54
2023/03/18 10:23:02;;;;;;;3.90;1.17;;;;;;;15.71;38.70;98322.53;4955910;28;20742;-54
2023/03/18 10:25:34;;;;;;;3.90;1.40;;;;;;;15.83;38.49;98335.16;4964040;28;20226;-56
2023/03/18 10:28:32;;;;;;;5.97;1.27;;;;;;;15.72;40.41;98337.31;4957091;28;20263;-54
2023/03/18 10:31:11;;;;;;;2.80;1.30;;;;;;;15.56;38.85;98335.75;4965884;28;20625;-57
2023/03/18 10:33:45;;;;;;;4.43;1.50;;;;;;;15.38;40.33;98333.59;4964793;28;20245;-57
2023/03/18 10:36:17;;;;;;;2.77;1.50;;;;;;;15.23;40.55;98330.22;4948838;28;20233;-57
2023/03/18 10:38:48;;;;;;;3.03;1.50;;;;;;;15.26;40.43;98337.72;4963213;28;20603;-56
2023/03/18 10:41:18;;;;;;;3.47;1.40;;;;;;;15.25;40.30;98336.94;4956403;28;20233;-56
2023/03/18 10:43:47;;;;;;;3.43;1.67;;;;;;;15.08;40.84;98335.53;4955806;28;20672;-55
2023/03/18 10:46:16;;;;;;;5.80;1.67;;;;;;;14.85;42.58;98341.78;4966053;28;20235;-56
2023/03/18 10:48:47;;;;;;;4.43;1.77;;;;;;;14.87;41.16;98332.69;4964837;28;20225;-56
2023/03/18 10:51:19;;;;;;;3.27;1.30;;;;;;;14.69;42.30;98330.47;4966564;28;20243;-56
2023/03/18 10:53:54;;;;;;;4.47;1.23;;;;;;;14.45;41.88;98321.09;4962510;28;20230;-54
2023/03/18 10:56:21;;;;;;;3.73;1.30;;;;;;;14.65;41.03;98321.31;4958926;28;20238;-56
2023/03/18 10:58:47;;;;;;;2.97;1.10;;;;;;;14.69;41.78;98319.13;4963078;28;20667;-54
2023/03/18 11:01:17;;;;;;;3.73;1.10;;;;;;;14.83;41.57;98322.75;4957086;28;20831;-56
2023/03/18 11:03:47;;;;;;;3.23;1.43;;;;;;;14.71;41.53;98319.81;4942996;28;20230;-56
2023/03/18 11:06:17;;;;;;;4.43;1.43;;;;;;;14.91;41.39;98323.44;4967289;28;20237;-56
2023/03/18 11:08:48;;;;;;;3.13;1.10;;;;;;;15.02;40.35;98313.44;4961098;28;20237;-55
2023/03/18 11:11:20;;;;;;;3.80;1.50;;;;;;;15.04;40.56;98316.69;4949742;28;20324;-57
2023/03/18 11:13:49;;;;;;;4.10;1.43;;;;;;;15.28;40.50;98315.50;4949106;28;20235;-56
2023/03/18 11:16:28;;;;;;;5.17;1.67;;;;;;;15.47;40.76;98327.19;4949852;28;20237;-57
2023/03/18 11:18:55;;;;;;;2.37;1.30;;;;;;;15.80;39.36;98325.81;4954372;28;20327;-57
2023/03/18 11:21:22;;;;;;;3.30;1.30;;;;;;;15.59;39.05;98330.09;4965677;28;20237;-56
2023/03/18 11:24:19;;;;;;;3.07;1.00;;;;;;;15.99;38.81;98334.88;4965131;28;20616;-56
2023/03/18 11:26:52;;;;;;;2.63;1.40;;;;;;;16.19;37.87;98329.72;4955774;28;20237;-55
2023/03/18 11:29:24;;;;;;;4.57;1.27;;;;;;;16.13;38.54;98329.69;4966117;28;20228;-56
2023/03/18 11:31:57;;;;;;;3.73;1.30;;;;;;;16.27;38.77;98335.84;4964084;28;20237;-54
2023/03/18 11:34:25;;;;;;;3.20;1.60;;;;;;;16.24;38.09;98323.88;4943390;28;20329;-56
2023/03/18 11:36:59;;;;;;;2.30;1.23;;;;;;;16.59;38.72;98328.28;4958443;28;20241;-56
2023/03/18 11:39:30;;;;;;;8.53;1.50;;;;;;;16.61;38.57;98334.97;4965016;28;20230;-56
2023/03/18 11:41:58;;;;;;;3.67;1.40;;;;;;;16.49;38.15;98318.91;4951755;28;20306;-55
2023/03/18 11:44:29;;;;;;;3.10;1.30;;;;;;;16.57;37.29;98322.38;4936708;28;20688;-56
2023/03/18 11:47:02;;;;;;;2.53;1.27;;;;;;;16.81;36.94;98313.94;4954432;28;20256;-56
2023/03/18 11:49:30;;;;;;;4.17;1.23;;;;;;;17.02;36.52;98311.38;4965822;28;20815;-56
2023/03/18 11:52:10;;;;;;;5.37;1.67;;;;;;;17.34;39.46;98301.91;4966077;28;20231;-54